Time;durP1;ratioP1;P1;durP2;ratioP2;P2;SDS_P1;SDS_P2;PMS_P1;PMS_P2;Temp;Humidity;BMP_temperature;BMP_pressure;BME280_temperature;BME280_humidity;BME280_pressure;Samples;Min_cycle;Max_cycle;Signal;HPM_P1;HPM_P2
2022/05/08 00:02:23;;;;;;;4.08;2.47;;;;;;;15.36;41.83;100899.51;1671080;85;20982;-81
2022/05/08 00:04:52;;;;;;;4.00;2.30;;;;;;;15.35;41.54;100896.53;1653674;85;21095;-86
2022/05/08 00:07:20;;;;;;;6.22;2.60;;;;;;;15.35;41.62;100893.84;1648327;86;21039;-80
2022/05/08 00:09:48;;;;;;;8.53;2.72;;;;;;;15.34;41.42;100893.52;1662323;84;22200;-75
2022/05/08 00:12:16;;;;;;;4.55;2.52;;;;;;;15.31;41.42;100895.30;1648886;85;21015;-86
2022/05/08 00:14:45;;;;;;;3.98;2.35;;;;;;;15.31;41.49;100891.76;1665781;84;21095;-85
2022/05/08 00:17:11;;;;;;;2.77;2.58;;;;;;;15.28;41.71;100894.35;1668492;84;21097;-81
2022/05/08 00:19:39;;;;;;;3.65;2.55;;;;;;;15.22;41.67;100894.33;1677339;84;21043;-86
2022/05/08 00:22:06;;;;;;;5.15;2.30;;;;;;;15.17;41.51;100889.06;1667727;84;21625;-80
2022/05/08 00:24:34;;;;;;;4.58;3.05;;;;;;;15.18;41.59;100888.05;1670247;84;21074;-78
2022/05/08 00:27:00;;;;;;;3.42;2.55;;;;;;;15.15;41.40;100888.45;1678867;84;21565;-86
2022/05/08 00:29:26;;;;;;;3.90;2.52;;;;;;;15.17;41.28;100882.88;1676580;84;21054;-86
2022/05/08 00:31:52;;;;;;;3.75;2.62;;;;;;;15.15;41.16;100883.08;1664851;85;21106;-82
2022/05/08 00:34:18;;;;;;;2.45;2.25;;;;;;;15.12;41.36;100881.31;1674067;84;21058;-83
2022/05/08 00:36:44;;;;;;;;;;;;;;;15.11;41.17;100884.52;1672353;84;21114;-85
2022/05/08 00:39:11;;;;;;;5.75;2.58;;;;;;;15.09;41.17;100882.56;1678829;85;20202;-77
2022/05/08 00:41:37;;;;;;;2.55;2.35;;;;;;;15.02;41.02;100884.41;1670878;85;21066;-80
2022/05/08 00:44:04;;;;;;;3.77;1.85;;;;;;;15.03;41.02;100875.83;1667863;85;21110;-85
2022/05/08 00:46:31;;;;;;;4.97;2.45;;;;;;;15.02;41.04;100875.53;1666119;85;21063;-82
2022/05/08 00:48:57;;;;;;;3.40;2.42;;;;;;;15.02;40.93;100874.19;1657567;84;21094;-77
2022/05/08 00:51:26;;;;;;;2.12;2.00;;;;;;;14.99;40.79;100877.59;1672770;84;21586;-78
2022/05/08 00:53:56;;;;;;;5.67;1.82;;;;;;;14.99;40.68;100874.91;1672535;85;21135;-85
2022/05/08 00:56:23;;;;;;;2.05;1.42;;;;;;;14.97;40.63;100876.12;1663129;85;21033;-84
2022/05/08 00:58:52;;;;;;;2.50;1.57;;;;;;;14.96;40.50;100868.60;1674129;84;21147;-79
2022/05/08 01:01:18;;;;;;;4.97;2.20;;;;;;;14.96;40.33;100867.26;1684530;82;20986;-76
2022/05/08 01:03:45;;;;;;;;;;;;;;;14.95;40.48;100871.48;1699786;83;21015;-86
2022/05/08 01:06:14;;;;;;;4.20;2.00;;;;;;;14.92;40.47;100868.70;1694446;83;20194;-77
2022/05/08 01:08:45;;;;;;;1.57;1.47;;;;;;;14.82;40.65;100858.86;1698258;83;21879;-84
2022/05/08 01:11:12;;;;;;;3.85;1.47;;;;;;;14.81;40.70;100858.56;1699071;83;21098;-76
2022/05/08 01:13:40;;;;;;;3.47;1.60;;;;;;;14.81;40.66;100854.54;1664630;84;21137;-80
2022/05/08 01:16:11;;;;;;;3.77;1.62;;;;;;;14.81;40.59;100855.06;1671397;84;21126;-86
2022/05/08 01:18:38;;;;;;;3.72;1.30;;;;;;;14.78;40.58;100855.75;1642528;86;22277;-74
2022/05/08 01:21:15;;;;;;;1.90;1.55;;;;;;;14.78;40.55;100853.59;1625054;85;21051;-85
2022/05/08 01:23:42;;;;;;;;;;;;;;;14.74;40.70;100853.17;1604193;87;21111;-84
2022/05/08 01:26:09;;;;;;;1.55;1.10;;;;;;;14.69;40.71;100852.12;1600729;88;20134;-83
2022/05/08 01:28:35;;;;;;;2.92;1.75;;;;;;;14.62;40.80;100846.76;1672312;84;21139;-82
2022/05/08 01:31:02;;;;;;;;;;;;;;;14.62;40.72;100849.94;1659068;84;21135;-85
2022/05/08 01:33:28;;;;;;;4.80;1.30;;;;;;;14.61;40.70;100849.12;1659908;84;20174;-83
2022/05/08 01:35:56;;;;;;;2.05;1.82;;;;;;;14.56;40.80;100854.22;1666077;84;21055;-85
2022/05/08 01:38:24;;;;;;;3.52;1.85;;;;;;;14.56;40.77;100849.70;1637964;86;21078;-84
2022/05/08 01:40:50;;;;;;;5.28;0.90;;;;;;;14.55;40.80;100845.88;1638852;86;21045;-85
2022/05/08 01:43:17;;;;;;;3.08;1.47;;;;;;;14.54;40.82;100846.89;1625675;86;21094;-78
2022/05/08 01:45:43;;;;;;;2.40;1.30;;;;;;;14.52;40.87;100844.93;1623074;86;21020;-83
2022/05/08 01:48:22;;;;;;;3.27;1.75;;;;;;;14.52;40.89;100848.95;1671130;84;21064;-83
2022/05/08 01:50:53;;;;;;;7.30;1.80;;;;;;;14.49;40.92;100851.53;1670621;84;21126;-84
2022/05/08 01:53:21;;;;;;;5.45;1.50;;;;;;;14.47;41.05;100840.19;1674145;84;21075;-80
2022/05/08 01:55:54;;;;;;;1.77;1.02;;;;;;;14.46;40.90;100840.37;1673625;84;20937;-84
2022/05/08 01:58:21;;;;;;;2.27;1.45;;;;;;;14.44;41.01;100842.44;1672634;84;21181;-84
2022/05/08 02:00:49;;;;;;;3.15;1.87;;;;;;;14.44;40.99;100844.59;1664340;84;21002;-78
2022/05/08 02:03:17;;;;;;;4.42;1.10;;;;;;;14.38;41.11;100838.70;1637527;86;21656;-84
2022/05/08 02:05:44;;;;;;;5.85;1.30;;;;;;;14.40;41.04;100839.33;1662670;85;21082;-83
2022/05/08 02:08:12;;;;;;;3.22;1.82;;;;;;;14.40;41.12;100838.81;1669868;84;21078;-83
2022/05/08 02:10:41;;;;;;;4.60;1.52;;;;;;;14.39;41.10;100845.22;1661175;84;21030;-77
2022/05/08 02:13:10;;;;;;;2.85;1.17;;;;;;;14.36;41.14;100842.11;1685076;84;21019;-78
2022/05/08 02:15:40;;;;;;;5.28;1.20;;;;;;;14.32;41.20;100840.34;1681268;84;21043;-85
2022/05/08 02:18:09;;;;;;;4.67;1.32;;;;;;;14.31;41.22;100843.21;1680300;84;21078;-83
2022/05/08 02:20:41;;;;;;;4.40;1.05;;;;;;;14.29;41.31;100843.93;1685227;84;21050;-84
2022/05/08 02:23:08;;;;;;;4.08;1.57;;;;;;;14.28;41.31;100848.47;1695446;84;21564;-84
2022/05/08 02:25:37;;;;;;;3.22;1.27;;;;;;;14.27;41.32;100856.72;1652780;84;21613;-83
2022/05/08 02:28:05;;;;;;;1.35;1.12;;;;;;;14.27;41.42;100855.38;1664688;84;20983;-82
2022/05/08 02:30:31;;;;;;;1.25;1.15;;;;;;;14.27;41.56;100856.72;1678991;84;21098;-75
2022/05/08 02:33:00;;;;;;;3.42;1.22;;;;;;;14.24;41.56;100856.61;1672304;84;22718;-75
2022/05/08 02:35:26;;;;;;;4.50;1.27;;;;;;;14.20;41.63;100858.86;1667690;85;21058;-83
2022/05/08 02:37:55;;;;;;;4.28;1.45;;;;;;;14.18;41.63;100851.53;1664310;84;21027;-80
2022/05/08 02:40:23;;;;;;;2.08;0.95;;;;;;;14.16;41.79;100857.58;1682955;84;21039;-69
2022/05/08 02:42:49;;;;;;;2.40;0.95;;;;;;;14.15;41.67;100857.28;1665823;83;21297;-77
2022/05/08 02:45:16;;;;;;;2.65;1.40;;;;;;;14.10;41.76;100849.52;1691276;83;21007;-76
2022/05/08 02:47:45;;;;;;;1.12;0.85;;;;;;;14.14;41.73;100866.34;1705683;83;21192;-79
2022/05/08 02:50:11;;;;;;;3.83;1.55;;;;;;;14.16;41.79;100875.00;1687493;83;21522;-76
2022/05/08 02:52:41;;;;;;;2.17;1.15;;;;;;;14.18;41.81;100868.96;1701135;83;21483;-86
2022/05/08 03:00:26;;;;;;;4.35;1.05;;;;;;;14.39;41.46;100868.50;1619179;86;21104;-82
2022/05/08 03:02:52;;;;;;;;;;;;;;;14.52;41.18;100870.41;1668100;84;21023;-86
2022/05/08 03:05:18;;;;;;;1.75;0.70;;;;;;;14.74;40.80;100869.27;1660265;85;20436;-85
2022/05/08 03:07:45;;;;;;;;;;;;;;;14.91;40.46;100874.27;1640010;86;21166;-84
2022/05/08 03:10:11;;;;;;;1.45;0.85;;;;;;;15.08;40.17;100877.39;1602045;87;20439;-78
2022/05/08 03:12:37;;;;;;;3.25;2.33;;;;;;;15.06;40.11;100872.75;1591692;87;21553;-84
2022/05/08 03:15:05;;;;;;;2.47;1.17;;;;;;;15.03;40.23;100878.02;1617046;87;21049;-77
2022/05/08 03:17:32;;;;;;;3.65;1.00;;;;;;;14.97;40.38;100877.47;1671623;83;21011;-74
2022/05/08 03:20:00;;;;;;;3.02;1.92;;;;;;;14.89;40.67;100877.15;1675434;83;20983;-84
2022/05/08 03:22:25;;;;;;;1.90;0.85;;;;;;;14.81;40.90;100877.35;1675805;84;21025;-72
2022/05/08 03:24:53;;;;;;;4.12;1.10;;;;;;;14.72;41.20;100882.59;1669791;84;21006;-84
2022/05/08 03:27:20;;;;;;;3.42;0.72;;;;;;;14.65;41.40;100884.42;1669620;84;21056;-75
2022/05/08 03:29:46;;;;;;;7.95;1.00;;;;;;;14.55;41.55;100882.09;1671820;84;21015;-85
2022/05/08 03:32:12;;;;;;;2.80;1.27;;;;;;;14.49;41.84;100892.30;1671082;84;21073;-78
2022/05/08 03:34:39;;;;;;;1.55;1.12;;;;;;;14.43;42.03;100890.39;1653556;84;21033;-85
2022/05/08 03:37:06;;;;;;;2.87;1.72;;;;;;;14.38;42.07;100891.00;1670607;84;21034;-81
2022/05/08 03:39:32;;;;;;;3.70;1.35;;;;;;;14.34;42.10;100896.45;1657842;84;21043;-84
2022/05/08 03:41:59;;;;;;;3.50;1.47;;;;;;;14.32;42.25;100893.15;1676061;84;21052;-85
2022/05/08 03:44:25;;;;;;;1.72;1.12;;;;;;;14.34;42.27;100893.25;1667113;84;21056;-74
2022/05/08 03:46:51;;;;;;;4.40;1.35;;;;;;;14.57;41.89;100891.61;1666448;85;21109;-83
2022/05/08 03:49:17;;;;;;;1.52;1.30;;;;;;;15.03;40.86;100898.16;1669997;86;21099;-84
2022/05/08 03:51:44;;;;;;;3.60;1.77;;;;;;;15.53;39.95;100891.86;1672105;85;21024;-84
2022/05/08 03:54:10;;;;;;;3.60;1.50;;;;;;;15.92;39.20;100890.20;1674074;85;21035;-78
2022/05/08 03:56:36;;;;;;;;;;;;;;;16.20;38.67;100887.75;1669296;84;21564;-87
2022/05/08 03:59:03;;;;;;;3.25;1.32;;;;;;;16.52;37.95;100887.84;1662058;84;20359;-78
2022/05/08 04:01:30;;;;;;;4.42;1.05;;;;;;;16.86;37.25;100887.98;1675971;84;21022;-79
2022/05/08 04:03:59;;;;;;;2.27;1.15;;;;;;;17.24;36.80;100883.59;1675127;84;21044;-85
2022/05/08 04:06:25;;;;;;;1.57;1.07;;;;;;;17.47;36.07;100878.41;1669469;85;21028;-81
2022/05/08 04:08:53;;;;;;;0.95;0.70;;;;;;;17.58;36.29;100881.45;1666286;84;21120;-78
2022/05/08 04:11:20;;;;;;;8.60;1.15;;;;;;;17.56;36.03;100878.97;1665140;84;21119;-82
2022/05/08 04:13:46;;;;;;;;;;;;;;;17.58;36.11;100883.61;1706841;84;21680;-76
2022/05/08 04:16:19;;;;;;;2.70;1.37;;;;;;;17.68;36.01;100881.22;1702677;82;20132;-82
2022/05/08 04:18:46;;;;;;;5.10;1.30;;;;;;;17.85;35.96;100880.68;1706306;84;21153;-84
2022/05/08 04:21:12;;;;;;;3.08;1.40;;;;;;;18.08;35.48;100881.36;1700963;82;21507;-84
2022/05/08 04:26:24;;;;;;;7.85;1.42;;;;;;;17.82;35.78;100884.63;1655577;85;21399;-86
2022/05/08 04:32:04;;;;;;;3.83;1.37;;;;;;;16.93;37.59;100896.01;1791962;76;22814;-79
2022/05/08 04:34:30;;;;;;;4.67;1.17;;;;;;;16.60;38.29;100892.97;1697289;79;21070;-81
2022/05/08 04:36:56;;;;;;;3.67;1.70;;;;;;;16.28;39.16;100896.92;1665457;84;21041;-87
2022/05/08 04:39:22;;;;;;;5.17;1.60;;;;;;;16.12;39.45;100898.23;1667498;84;21072;-85
2022/05/08 04:41:49;;;;;;;5.05;1.10;;;;;;;16.02;39.89;100901.86;1666793;84;21585;-80
2022/05/08 04:44:16;;;;;;;5.15;1.80;;;;;;;15.93;40.36;100903.93;1672713;83;21076;-84
2022/05/08 04:46:42;;;;;;;6.72;1.67;;;;;;;15.85;40.77;100904.16;1715964;82;21577;-87
2022/05/08 04:49:10;;;;;;;4.08;1.45;;;;;;;15.85;40.74;100902.81;1720625;82;21033;-86
2022/05/08 04:51:36;;;;;;;3.37;1.50;;;;;;;15.80;41.06;100909.86;1721098;82;21315;-85
2022/05/08 04:54:02;;;;;;;;;;;;;;;15.79;41.06;100905.53;1725176;82;21313;-76
2022/05/08 04:56:30;;;;;;;1.57;1.45;;;;;;;15.75;41.41;100906.47;1679655;82;20207;-81
2022/05/08 04:58:57;;;;;;;2.60;2.25;;;;;;;15.70;41.77;100903.53;1656300;85;21048;-89
2022/05/08 05:01:24;;;;;;;8.35;2.10;;;;;;;15.72;41.68;100906.31;1678151;83;21089;-88
2022/05/08 05:03:52;;;;;;;6.28;1.70;;;;;;;15.73;41.68;100908.02;1649630;85;21184;-81
2022/05/08 05:06:18;;;;;;;5.28;1.85;;;;;;;15.77;41.87;100905.73;1631066;87;21078;-87
2022/05/08 05:08:44;;;;;;;4.35;1.87;;;;;;;15.77;42.08;100905.73;1650103;85;21117;-89
2022/05/08 05:11:10;;;;;;;3.83;1.92;;;;;;;15.82;41.87;100907.78;1637711;86;21051;-80
2022/05/08 05:13:38;;;;;;;10.08;2.62;;;;;;;15.89;42.11;100909.95;1642068;86;21075;-87
2022/05/08 05:16:06;;;;;;;4.60;1.85;;;;;;;15.93;42.01;100905.80;1606799;87;21501;-86
2022/05/08 05:18:32;;;;;;;3.17;2.02;;;;;;;15.94;42.26;100903.44;1606187;88;21082;-88
2022/05/08 05:20:58;;;;;;;3.02;1.92;;;;;;;15.96;42.39;100904.05;1606012;88;21094;-84
2022/05/08 05:23:24;;;;;;;;;;;;;;;15.97;42.44;100903.00;1628117;85;21286;-77
2022/05/08 05:25:51;;;;;;;3.90;2.20;;;;;;;15.99;42.72;100912.20;1646901;85;20172;-80
2022/05/08 05:28:18;;;;;;;5.05;1.65;;;;;;;15.94;42.74;100904.78;1638215;86;21131;-82
2022/05/08 05:30:44;;;;;;;9.28;2.02;;;;;;;15.96;42.94;100904.87;1645409;85;21069;-87
2022/05/08 05:33:15;;;;;;;6.92;2.05;;;;;;;15.99;42.86;100904.14;1623669;87;21067;-79
2022/05/08 05:35:39;;;;;;;3.15;2.40;;;;;;;16.00;42.88;100907.97;1665257;84;21014;-87
2022/05/08 05:38:07;;;;;;;5.35;2.85;;;;;;;16.00;42.86;100906.62;1679143;84;22257;-78
2022/05/08 05:40:33;;;;;;;;;;;;;;;16.02;43.04;100900.52;1672787;81;21259;-68
2022/05/08 05:43:00;;;;;;;3.03;2.13;;;;;;;16.09;43.14;100895.13;1670718;81;20304;-70
2022/05/08 05:45:26;;;;;;;4.03;2.05;;;;;;;16.06;42.72;100899.05;1677390;81;21031;-88
2022/05/08 05:47:53;;;;;;;4.70;2.10;;;;;;;16.12;42.88;100898.23;1633226;86;21573;-87
2022/05/08 05:50:23;;;;;;;8.93;2.15;;;;;;;16.23;42.85;100899.41;1674336;84;21050;-81
2022/05/08 05:52:51;;;;;;;4.87;2.47;;;;;;;16.35;42.24;100898.26;1632840;86;21078;-84
2022/05/08 05:55:18;;;;;;;4.45;2.40;;;;;;;16.42;42.27;100897.69;1679658;81;20990;-81
2022/05/08 05:57:46;;;;;;;4.40;2.40;;;;;;;16.47;41.78;100895.19;1730984;81;21065;-78
2022/05/08 06:00:18;;;;;;;5.60;2.27;;;;;;;16.58;41.82;100899.61;1725648;81;21109;-79
2022/05/08 06:02:46;;;;;;;5.15;2.87;;;;;;;16.66;41.49;100903.39;1676215;84;21525;-82
2022/05/08 06:05:14;;;;;;;5.15;2.85;;;;;;;16.73;41.32;100910.92;1673165;84;21017;-83
2022/05/08 06:07:42;;;;;;;5.60;2.15;;;;;;;16.80;41.33;100904.14;1669151;84;21129;-78
2022/05/08 06:10:11;;;;;;;5.60;2.47;;;;;;;16.87;41.09;100907.13;1669189;84;21074;-75
2022/05/08 06:12:37;;;;;;;6.12;2.90;;;;;;;16.92;41.51;100909.19;1666537;82;21042;-84
2022/05/08 06:15:08;;;;;;;4.33;2.10;;;;;;;17.00;41.19;100908.09;1668425;84;20991;-84
2022/05/08 06:17:34;;;;;;;8.98;2.75;;;;;;;17.09;40.81;100906.27;1667361;84;21042;-85
2022/05/08 06:20:01;;;;;;;9.55;2.75;;;;;;;17.26;40.93;100910.61;1664537;84;21100;-78
2022/05/08 06:22:27;;;;;;;4.58;2.65;;;;;;;17.47;40.92;100895.93;1679866;83;21084;-86
2022/05/08 06:24:53;;;;;;;6.40;2.62;;;;;;;17.72;39.92;100905.87;1700740;83;21049;-81
2022/05/08 06:27:19;;;;;;;;;;;;;;;17.93;39.92;100899.79;1702723;83;21121;-85
2022/05/08 06:29:45;;;;;;;6.00;2.80;;;;;;;18.15;39.08;100901.53;1695806;83;20190;-85
2022/05/08 06:32:14;;;;;;;5.08;2.80;;;;;;;18.18;39.68;100905.14;1702136;83;21699;-78
2022/05/08 06:34:41;;;;;;;8.75;2.80;;;;;;;18.25;39.69;100903.17;1697836;82;20998;-84
2022/05/08 06:37:07;;;;;;;;;;;;;;;18.33;39.12;100906.08;1664353;84;21082;-80
2022/05/08 06:39:34;;;;;;;4.35;2.22;;;;;;;18.34;38.96;100905.87;1656358;83;20141;-76
2022/05/08 06:42:00;;;;;;;5.67;3.25;;;;;;;18.34;38.96;100905.87;1659697;85;21020;-83
2022/05/08 06:44:29;;;;;;;8.43;3.77;;;;;;;18.38;38.06;100905.70;1656768;85;21068;-84
2022/05/08 06:46:56;;;;;;;8.45;2.98;;;;;;;18.24;39.37;100906.40;1679996;85;21368;-75
2022/05/08 06:49:22;;;;;;;5.95;2.87;;;;;;;18.24;39.37;100906.40;1707311;82;21526;-85
2022/05/08 06:51:49;;;;;;;7.30;2.25;;;;;;;18.27;39.61;100911.86;1705086;82;21014;-84
2022/05/08 06:54:15;;;;;;;4.20;3.25;;;;;;;18.27;39.13;100905.11;1706794;82;21099;-83
2022/05/08 06:56:42;;;;;;;2.98;2.52;;;;;;;18.37;38.97;100910.01;1702819;81;21084;-80
2022/05/08 07:01:54;;;;;;;3.30;2.77;;;;;;;18.49;39.39;100904.95;1720292;81;20975;-83
2022/05/08 07:04:20;;;;;;;9.75;3.05;;;;;;;18.60;39.15;100905.25;1726524;82;21589;-88
2022/05/08 07:06:47;;;;;;;3.58;2.72;;;;;;;18.67;39.07;100906.80;1726868;81;21568;-82
2022/05/08 07:09:13;;;;;;;5.28;2.92;;;;;;;18.75;38.94;100913.76;1730333;82;21015;-87
2022/05/08 07:11:47;;;;;;;4.17;2.40;;;;;;;18.86;38.78;100906.27;1721246;82;21034;-84
2022/05/08 07:14:12;;;;;;;6.33;2.87;;;;;;;18.86;38.22;100913.02;1700230;83;21038;-80
2022/05/08 07:16:38;;;;;;;;;;;;;;;18.79;38.64;100906.84;1701096;83;21062;-84
2022/05/08 07:19:06;;;;;;;12.00;3.90;;;;;;;18.70;38.68;100910.91;1701861;83;20106;-86
2022/05/08 07:21:32;;;;;;;6.10;3.50;;;;;;;18.56;38.44;100906.76;1700120;83;21582;-87
2022/05/08 07:23:58;;;;;;;4.85;3.42;;;;;;;18.49;39.05;100908.17;1693233;83;21023;-86
2022/05/08 07:26:25;;;;;;;11.75;3.55;;;;;;;18.53;38.84;100912.60;1688068;83;21371;-87
2022/05/08 07:28:51;;;;;;;8.48;2.80;;;;;;;18.57;38.70;100906.53;1690506;83;21125;-77
2022/05/08 07:31:17;;;;;;;6.83;4.10;;;;;;;18.66;38.73;100903.80;1691527;83;21122;-84
2022/05/08 07:33:43;;;;;;;5.72;3.15;;;;;;;18.77;38.71;100910.30;1701080;83;21564;-89
2022/05/08 07:36:15;;;;;;;4.45;3.35;;;;;;;18.88;38.58;100912.80;1691865;83;21016;-81
2022/05/08 07:38:46;;;;;;;3.87;3.50;;;;;;;19.02;38.33;100909.36;1688271;83;21544;-88
2022/05/08 07:41:16;;;;;;;8.55;2.98;;;;;;;19.19;37.78;100910.88;1698479;83;21077;-83
2022/05/08 07:43:46;;;;;;;5.00;3.45;;;;;;;19.29;37.04;100904.90;1699395;83;21066;-86
2022/05/08 07:46:14;;;;;;;5.08;3.22;;;;;;;19.35;37.08;100910.75;1703368;82;21069;-75
2022/05/08 07:48:41;;;;;;;6.42;3.20;;;;;;;19.10;37.13;100864.97;1696174;82;21100;-88
2022/05/08 07:51:07;;;;;;;5.62;3.10;;;;;;;19.49;37.06;100907.29;1701886;82;21081;-84
2022/05/08 07:53:34;;;;;;;;;;;;;;;19.65;37.06;100906.06;1706548;82;21030;-80
2022/05/08 07:56:01;;;;;;;4.42;2.90;;;;;;;19.87;36.75;100906.84;1700573;82;20188;-80
2022/05/08 07:58:28;;;;;;;4.95;3.08;;;;;;;19.96;36.56;100909.48;1699904;83;21512;-85
2022/05/08 08:00:57;;;;;;;12.55;3.72;;;;;;;20.14;36.37;100909.08;1698629;82;21048;-80
2022/05/08 08:03:27;;;;;;;3.40;3.10;;;;;;;20.30;36.11;100911.02;1701439;83;20989;-88
2022/05/08 08:05:54;;;;;;;9.93;3.40;;;;;;;20.44;35.85;100900.77;1701009;83;21072;-88
2022/05/08 08:08:23;;;;;;;6.17;3.02;;;;;;;20.57;35.82;100903.73;1704851;83;21052;-85
2022/05/08 08:10:53;;;;;;;7.70;3.52;;;;;;;20.74;35.66;100902.45;1696321;83;21060;-83
2022/05/08 08:13:20;;;;;;;5.10;3.35;;;;;;;20.92;35.54;100900.06;1670608;83;21057;-80
2022/05/08 08:15:48;;;;;;;3.37;2.95;;;;;;;21.09;35.13;100902.25;1668397;84;21529;-87
2022/05/08 08:18:18;;;;;;;6.70;2.98;;;;;;;21.23;35.15;100901.94;1664591;85;21048;-88
2022/05/08 08:20:45;;;;;;;4.60;3.15;;;;;;;21.30;34.84;100903.95;1659159;84;21005;-88
2022/05/08 08:23:12;;;;;;;3.22;2.90;;;;;;;21.30;34.72;100902.61;1690132;83;21032;-76
2022/05/08 08:25:40;;;;;;;5.50;3.40;;;;;;;21.30;33.70;100898.00;1676128;84;21084;-87
2022/05/08 08:28:07;;;;;;;6.53;2.72;;;;;;;21.24;32.58;100909.02;1709210;83;21057;-88
2022/05/08 08:30:36;;;;;;;4.05;3.42;;;;;;;21.14;32.28;100902.35;1711256;83;21014;-86
2022/05/08 08:33:02;;;;;;;8.23;3.33;;;;;;;21.06;32.42;100905.47;1684159;84;21081;-84
2022/05/08 08:35:30;;;;;;;3.50;3.05;;;;;;;21.01;32.30;100905.38;1712109;83;21251;-72
2022/05/08 08:37:57;;;;;;;3.00;2.80;;;;;;;21.01;32.45;100905.38;1689087;81;21010;-70
2022/05/08 08:40:23;;;;;;;4.47;3.67;;;;;;;21.04;32.41;100904.90;1681525;81;21012;-72
2022/05/08 08:42:51;;;;;;;5.12;3.30;;;;;;;21.10;32.45;100897.14;1680337;84;20981;-87
2022/05/08 08:48:07;;;;;;;6.80;3.05;;;;;;;21.16;32.46;100897.50;1708781;83;21549;-84
2022/05/08 08:50:35;;;;;;;3.83;2.50;;;;;;;21.14;32.75;100896.94;1710367;83;20962;-75
2022/05/08 08:53:05;;;;;;;5.85;4.08;;;;;;;21.16;32.66;100897.50;1702278;83;21504;-83
2022/05/08 08:55:33;;;;;;;5.83;3.30;;;;;;;21.17;32.88;100896.97;1707383;83;21006;-86
2022/05/08 08:58:00;;;;;;;4.10;2.30;;;;;;;21.16;32.99;100894.80;1671902;84;21073;-87
2022/05/08 09:00:27;;;;;;;4.05;3.45;;;;;;;21.23;32.53;100896.52;1672808;84;20990;-79
2022/05/08 09:02:55;;;;;;;2.98;2.77;;;;;;;21.33;32.58;100891.28;1674591;84;21077;-73
2022/05/08 09:05:24;;;;;;;3.90;2.95;;;;;;;21.48;31.95;100890.19;1656579;85;21185;-83
2022/05/08 09:07:53;;;;;;;7.92;3.83;;;;;;;21.56;31.84;100882.17;1683534;84;21108;-80
2022/05/08 09:10:24;;;;;;;4.45;2.92;;;;;;;21.59;31.80;100885.75;1684719;84;20946;-88
2022/05/08 09:13:02;;;;;;;8.13;3.50;;;;;;;21.65;31.88;100883.39;1685937;83;21060;-85
2022/05/08 09:15:34;;;;;;;5.58;3.50;;;;;;;21.69;32.04;100875.58;1686261;83;21351;-84
2022/05/08 09:18:07;;;;;;;5.08;2.95;;;;;;;21.74;32.26;100875.66;1686329;83;21101;-85
2022/05/08 09:20:43;;;;;;;13.05;3.20;;;;;;;21.83;32.29;100874.16;1686836;83;21088;-87
2022/05/08 09:23:18;;;;;;;4.30;2.87;;;;;;;21.86;32.12;100871.48;1686416;83;21070;-83
2022/05/08 09:25:52;;;;;;;7.15;3.15;;;;;;;21.92;32.14;100864.49;1686878;83;21449;-83
2022/05/08 09:28:30;;;;;;;6.25;3.00;;;;;;;22.09;29.99;100860.91;1685770;83;21102;-87
2022/05/08 09:31:15;;;;;;;5.35;3.08;;;;;;;22.21;29.63;100860.27;1686043;83;21025;-83
2022/05/08 09:33:44;;;;;;;4.20;2.75;;;;;;;22.23;29.50;100858.11;1690128;83;21611;-84
2022/05/08 09:36:24;;;;;;;3.30;2.95;;;;;;;22.24;29.62;100852.95;1712333;82;21046;-86
2022/05/08 09:38:56;;;;;;;5.47;3.17;;;;;;;22.29;30.00;100857.66;1711449;82;21832;-82
2022/05/08 09:41:33;;;;;;;7.08;3.10;;;;;;;22.40;30.27;100853.99;1689325;83;21061;-87
2022/05/08 09:44:15;;;;;;;3.05;2.58;;;;;;;22.54;29.71;100853.86;1707739;82;21009;-82
2022/05/08 09:46:45;;;;;;;6.60;3.20;;;;;;;22.64;29.67;100854.52;1706832;82;21111;-87
2022/05/08 09:49:23;;;;;;;5.58;3.37;;;;;;;22.71;29.89;100846.96;1713808;82;21049;-77
2022/05/08 09:51:51;;;;;;;3.40;2.60;;;;;;;22.82;29.41;100856.04;1714786;82;21056;-83
2022/05/08 09:54:19;;;;;;;4.22;3.05;;;;;;;22.94;28.70;100842.28;1709018;82;21093;-78
2022/05/08 09:56:47;;;;;;;2.77;2.50;;;;;;;22.98;28.30;100839.34;1697183;83;21009;-70
2022/05/08 09:59:15;;;;;;;3.62;2.40;;;;;;;23.02;28.18;100842.34;1690981;83;21095;-72
2022/05/08 10:01:43;;;;;;;3.58;2.22;;;;;;;23.10;27.97;100840.01;1679014;84;20974;-74
2022/05/08 10:04:09;;;;;;;6.50;2.80;;;;;;;23.14;28.25;100838.95;1623983;87;21076;-80
2022/05/08 10:06:39;;;;;;;6.70;2.77;;;;;;;23.17;28.35;100834.88;1630574;86;21060;-85
2022/05/08 10:14:41;;;;;;;6.63;2.93;;;;;;;23.20;27.39;100834.38;1630303;86;21092;-79
2022/05/08 10:17:13;;;;;;;3.30;2.77;;;;;;;23.24;26.96;100834.13;1640191;86;21071;-82
2022/05/08 10:19:45;;;;;;;6.53;2.35;;;;;;;23.27;27.01;100834.42;1638120;86;21644;-81
2022/05/08 10:22:13;;;;;;;2.27;1.80;;;;;;;23.37;26.92;100831.50;1639109;85;21124;-83
2022/05/08 10:24:51;;;;;;;6.17;2.72;;;;;;;23.42;27.01;100820.11;1652779;85;21385;-79
2022/05/08 10:27:31;;;;;;;4.62;2.75;;;;;;;23.40;27.14;100826.36;1665169;85;21567;-85
2022/05/08 10:30:06;;;;;;;2.95;2.75;;;;;;;23.32;27.55;100829.58;1665651;85;21682;-84
2022/05/08 10:32:47;;;;;;;5.33;3.33;;;;;;;23.28;27.78;100826.56;1657166;85;21085;-82
2022/05/08 10:35:23;;;;;;;3.35;2.50;;;;;;;23.29;28.09;100817.30;1656733;85;21107;-80
2022/05/08 10:38:10;;;;;;;2.70;2.35;;;;;;;23.32;27.88;100814.62;1673082;85;21062;-83
2022/05/08 10:40:37;;;;;;;7.40;2.75;;;;;;;23.31;28.12;100812.42;1666476;84;21025;-84
2022/05/08 10:43:25;;;;;;;4.40;2.72;;;;;;;23.34;28.15;100809.73;1667202;84;21139;-78
2022/05/08 10:45:46;;;;;;;5.50;2.60;;;;;;;23.42;28.12;100802.43;1651330;85;21075;-83
2022/05/08 10:48:19;;;;;;;3.17;2.92;;;;;;;23.47;28.17;100807.07;1638039;86;21231;-82
2022/05/08 10:50:53;;;;;;;5.42;2.85;;;;;;;23.46;28.07;100800.01;1640498;86;22186;-82
2022/05/08 10:53:32;;;;;;;8.98;3.02;;;;;;;23.42;28.17;100791.55;1639724;86;21523;-83
2022/05/08 10:56:14;;;;;;;4.92;2.20;;;;;;;23.40;28.31;100797.80;1645872;85;21163;-81
2022/05/08 10:58:41;;;;;;;3.05;2.75;;;;;;;23.39;28.27;100794.78;1680251;84;21015;-81
2022/05/08 11:01:09;;;;;;;2.95;2.33;;;;;;;23.37;28.24;100783.35;1674557;84;21061;-79
2022/05/08 11:03:38;;;;;;;4.78;3.17;;;;;;;23.33;28.17;100791.22;1672817;84;21161;-83
2022/05/08 11:06:07;;;;;;;3.92;3.15;;;;;;;23.27;28.01;100787.38;1676085;84;21090;-81
2022/05/08 11:08:36;;;;;;;3.08;2.87;;;;;;;23.19;28.21;100781.05;1673942;84;21067;-75
2022/05/08 11:11:10;;;;;;;3.25;2.83;;;;;;;23.17;28.39;100784.58;1661989;85;21067;-82
2022/05/08 11:13:40;;;;;;;6.10;3.08;;;;;;;23.13;28.32;100787.84;1643895;86;21620;-82
2022/05/08 11:16:06;;;;;;;4.30;2.67;;;;;;;23.04;28.53;100775.81;1630543;86;21072;-82
2022/05/08 11:18:32;;;;;;;5.42;3.08;;;;;;;23.01;28.47;100776.83;1673702;84;21060;-82
2022/05/08 11:21:02;;;;;;;4.50;3.65;;;;;;;22.99;28.45;100773.56;1673729;84;21130;-81
2022/05/08 11:23:34;;;;;;;3.70;3.00;;;;;;;22.96;28.64;100773.52;1673057;83;21019;-82
2022/05/08 11:26:12;;;;;;;5.75;2.77;;;;;;;22.95;28.60;100767.82;1668434;84;21019;-84
2022/05/08 11:28:49;;;;;;;6.58;2.92;;;;;;;22.97;28.48;100765.66;1671699;84;21074;-80
2022/05/08 11:31:18;;;;;;;3.15;2.60;;;;;;;22.90;28.67;100763.15;1673891;84;21071;-81
2022/05/08 11:36:35;;;;;;;2.83;2.62;;;;;;;22.73;28.30;100757.88;1687329;84;21039;-74
2022/05/08 11:39:05;;;;;;;2.30;1.80;;;;;;;22.69;28.63;100757.28;1679195;84;21102;-81
2022/05/08 11:41:38;;;;;;;3.80;3.35;;;;;;;22.73;28.58;100757.88;1675013;84;21095;-78
2022/05/08 11:44:23;;;;;;;4.20;2.50;;;;;;;22.79;28.27;100748.39;1681928;84;21059;-81
2022/05/08 11:46:55;;;;;;;4.97;2.65;;;;;;;22.85;28.08;100743.27;1693079;83;22098;-83
2022/05/08 11:49:29;;;;;;;4.22;2.85;;;;;;;22.97;28.11;100737.12;1692599;83;21026;-82
2022/05/08 11:52:01;;;;;;;5.12;2.62;;;;;;;23.11;27.82;100734.78;1684403;83;20990;-81
2022/05/08 11:54:35;;;;;;;4.10;2.83;;;;;;;23.19;27.93;100738.39;1696570;83;21389;-77
2022/05/08 11:57:19;;;;;;;4.83;2.75;;;;;;;23.25;27.90;100731.08;1698466;82;21005;-80
2022/05/08 11:59:49;;;;;;;3.40;3.10;;;;;;;23.28;27.82;100726.45;1696089;83;21006;-82
2022/05/08 12:02:19;;;;;;;4.95;3.20;;;;;;;23.25;27.69;100722.92;1693756;83;21069;-82